Detroit, Michigan
Traffic Map
Current Weather Conditions
Detroit, Michigan
Overcast Thunderstorm
Overcast
70°
Feels Like: 70°
Wind Chill: 70° Ceiling: 3500
Heat Index: 70° Visibility: 6mi
Dew Point: 64° Wind: 18mph
Humidity: 83% Direction: 230° (SW)
Pressure: 29.97in Gusts: 32mph
Raw Report DataCYQG 271800Z 23016G28KT 6SM TSRA BKN035CB OVC080 21/18 A2997 RMK CB7AC1 SLP146 DENSITY ALT 1300FT
Traffic Incident Summary
Active as of:
Severity:
Category:
InformationThere was an issue retrieving the traffic information for this location. Please try a different location or try again shortly.
Advertisements
Track Severe Weather on mobile